Time;durP1;ratioP1;P1;durP2;ratioP2;P2;SDS_P1;SDS_P2;PMS_P1;PMS_P2;Temp;Humidity;BMP_temperature;BMP_pressure;BME280_temperature;BME280_humidity;BME280_pressure;Samples;Min_cycle;Max_cycle;Signal;HPM_P1;HPM_P2
2021/07/18 00:09:55;;;;;;;0.50;0.30;;;16.80;99.90;;;;;;20908071;28;20429;-45
2021/07/18 00:19:56;;;;;;;0.20;0.20;;;16.70;99.90;;;;;;20907886;28;20036;-48
2021/07/18 00:29:58;;;;;;;0.30;0.20;;;16.40;99.90;;;;;;20906873;28;20033;-45
2021/07/18 00:39:59;;;;;;;0.28;0.22;;;16.30;99.90;;;;;;20906017;28;20029;-48
2021/07/18 00:50:07;;;;;;;0.40;0.30;;;16.30;99.90;;;;;;20905805;28;20423;-46
2021/07/18 01:00:11;;;;;;;1.10;0.25;;;16.70;99.90;;;;;;20904700;28;20044;-46
2021/07/18 01:10:12;;;;;;;0.55;0.43;;;16.80;99.90;;;;;;20904682;28;20029;-45
2021/07/18 01:20:14;;;;;;;1.40;0.40;;;16.70;99.90;;;;;;20904670;28;20378;-46
2021/07/18 01:30:16;;;;;;;1.23;0.40;;;16.90;99.90;;;;;;20904406;28;20036;-45
2021/07/18 01:40:23;;;;;;;3.00;0.50;;;17.00;99.90;;;;;;20915567;28;20098;-46
2021/07/18 01:50:25;;;;;;;1.75;0.38;;;17.00;99.90;;;;;;20919185;28;20040;-46
2021/07/18 02:00:27;;;;;;;1.52;0.60;;;17.00;99.90;;;;;;20917738;28;20441;-47
2021/07/18 02:10:29;;;;;;;1.90;0.50;;;17.10;99.70;;;;;;20917267;28;20028;-46
2021/07/18 02:20:30;;;;;;;1.48;0.50;;;17.30;99.30;;;;;;20916826;28;20139;-46
2021/07/18 02:30:33;;;;;;;3.53;0.73;;;17.20;99.40;;;;;;20916238;28;20402;-47
2021/07/18 02:40:35;;;;;;;1.75;0.75;;;17.00;99.90;;;;;;20914996;28;20029;-45
2021/07/18 02:50:37;;;;;;;1.02;0.80;;;17.00;99.60;;;;;;20913869;28;20037;-48
2021/07/18 03:00:38;;;;;;;2.05;0.98;;;17.30;99.10;;;;;;20913998;28;20037;-47
2021/07/18 03:10:40;;;;;;;1.90;0.80;;;17.40;98.30;;;;;;20912083;28;20076;-45
2021/07/18 03:20:42;;;;;;;1.40;0.70;;;17.60;98.30;;;;;;20913933;28;20099;-46
2021/07/18 03:30:44;;;;;;;0.90;0.50;;;17.60;99.00;;;;;;20913242;28;20083;-46
2021/07/18 03:40:45;;;;;;;1.92;0.80;;;17.30;98.60;;;;;;20910885;28;20471;-46
2021/07/18 03:50:49;;;;;;;1.33;0.77;;;17.00;99.20;;;;;;20910336;28;20067;-45
2021/07/18 04:00:50;;;;;;;1.83;0.57;;;17.10;99.70;;;;;;20909173;28;20071;-48
2021/07/18 04:10:52;;;;;;;0.90;0.57;;;17.20;99.20;;;;;;20909637;28;20037;-47
2021/07/18 04:20:53;;;;;;;1.48;0.50;;;17.10;99.60;;;;;;20908519;28;20033;-45
2021/07/18 04:30:55;;;;;;;0.88;0.40;;;17.10;99.90;;;;;;20908095;28;20044;-49
2021/07/18 04:40:57;;;;;;;0.70;0.40;;;17.30;99.60;;;;;;20907590;28;20450;-49
2021/07/18 04:50:58;;;;;;;0.40;0.30;;;17.70;99.90;;;;;;20907087;28;20079;-46
2021/07/18 05:01:00;;;;;;;1.60;0.40;;;18.50;98.00;;;;;;20824118;28;20030;-47
2021/07/18 05:11:03;;;;;;;0.82;0.30;;;18.60;97.70;;;;;;20828362;28;20041;-46
2021/07/18 05:21:05;;;;;;;1.88;0.40;;;18.60;98.20;;;;;;20840558;28;20029;-47
2021/07/18 05:31:06;;;;;;;0.52;0.38;;;19.00;97.00;;;;;;20839872;28;20033;-47
2021/07/18 05:41:08;;;;;;;0.77;0.30;;;19.10;97.50;;;;;;20839798;28;20091;-50
2021/07/18 05:51:10;;;;;;;0.10;0.10;;;19.00;97.80;;;;;;20840510;28;20537;-47
2021/07/18 06:01:13;;;;;;;0.77;0.30;;;18.90;98.10;;;;;;20920135;28;20052;-45
2021/07/18 06:11:15;;;;;;;0.57;0.30;;;19.10;98.00;;;;;;20918713;28;20090;-46
2021/07/18 06:21:17;;;;;;;0.38;0.28;;;19.20;97.50;;;;;;20918842;28;20052;-49
2021/07/18 06:31:19;;;;;;;0.68;0.20;;;19.20;97.90;;;;;;20916204;28;20028;-46
2021/07/18 06:41:24;;;;;;;0.10;0.10;;;19.40;97.50;;;;;;20918064;28;20052;-45
2021/07/18 06:51:27;;;;;;;0.28;0.20;;;19.70;97.40;;;;;;20917722;28;20182;-49
2021/07/18 07:01:29;;;;;;;0.88;0.13;;;19.80;97.30;;;;;;20914391;28;20033;-46
2021/07/18 07:11:31;;;;;;;0.60;0.30;;;19.40;97.50;;;;;;20913123;28;20037;-47
2021/07/18 07:21:32;;;;;;;0.30;0.20;;;19.20;98.60;;;;;;20914857;28;20033;-50
2021/07/18 07:31:34;;;;;;;3.25;0.30;;;19.00;99.70;;;;;;20911515;28;20106;-48
2021/07/18 07:41:36;;;;;;;0.40;0.28;;;19.00;99.90;;;;;;20911377;28;20049;-45
2021/07/18 07:51:37;;;;;;;1.40;0.32;;;19.10;99.90;;;;;;20907844;28;20040;-49
2021/07/18 08:01:45;;;;;;;0.30;0.20;;;19.00;99.60;;;;;;20909250;28;20024;-45
2021/07/18 08:11:47;;;;;;;0.25;0.13;;;19.00;99.90;;;;;;20907497;28;20386;-48
2021/07/18 08:21:48;;;;;;;0.15;0.10;;;19.20;99.90;;;;;;20909452;28;20029;-45
2021/07/18 08:31:50;;;;;;;0.50;0.30;;;19.80;98.20;;;;;;20909140;28;20040;-48
2021/07/18 08:41:54;;;;;;;0.68;0.30;;;20.10;99.60;;;;;;20908140;28;20059;-47
2021/07/18 08:51:56;;;;;;;0.35;0.20;;;21.50;97.90;;;;;;20923682;28;20045;-49
2021/07/18 09:02:00;;;;;;;0.77;0.30;;;22.90;95.00;;;;;;20924488;28;20063;-48
2021/07/18 09:12:06;;;;;;;0.00;0.00;;;22.70;95.20;;;;;;20923240;28;20037;-47
2021/07/18 09:22:17;;;;;;;0.10;0.10;;;23.70;94.40;;;;;;20921066;28;20098;-47
2021/07/18 09:32:29;;;;;;;0.20;0.20;;;24.40;91.00;;;;;;20919854;28;20036;-49
2021/07/18 09:42:37;;;;;;;0.32;0.20;;;22.80;92.40;;;;;;20920118;28;20045;-47
2021/07/18 09:52:43;;;;;;;0.75;0.22;;;21.80;96.00;;;;;;20920877;28;20040;-46
2021/07/18 10:02:45;;;;;;;0.20;0.20;;;22.00;95.20;;;;;;20917309;28;20475;-50
2021/07/18 10:12:47;;;;;;;0.30;0.17;;;22.30;93.60;;;;;;20917653;28;20560;-47
2021/07/18 10:22:50;;;;;;;0.55;0.20;;;22.90;94.50;;;;;;20916970;28;20025;-51
2021/07/18 10:32:54;;;;;;;0.40;0.20;;;23.60;92.90;;;;;;20916923;28;20114;-46
2021/07/18 10:42:57;;;;;;;0.35;0.20;;;24.00;93.70;;;;;;20918958;28;20523;-46
2021/07/18 10:53:34;;;;;;;0.55;0.30;;;25.20;90.70;;;;;;20918599;28;20434;-51
2021/07/18 11:03:37;;;;;;;0.40;0.22;;;23.90;91.10;;;;;;20916221;28;20033;-45
2021/07/18 11:13:59;;;;;;;0.47;0.30;;;23.40;91.60;;;;;;20912240;28;20029;-48
2021/07/18 11:24:01;;;;;;;0.20;0.20;;;23.40;91.50;;;;;;20913662;28;20536;-47
2021/07/18 11:34:12;;;;;;;0.20;0.20;;;23.00;92.50;;;;;;20914495;28;20029;-46
2021/07/18 11:44:15;;;;;;;0.32;0.20;;;23.70;95.50;;;;;;20911568;28;20033;-48
2021/07/18 11:54:17;;;;;;;0.20;0.20;;;25.00;96.90;;;;;;20911213;28;20398;-49
2021/07/18 12:04:23;;;;;;;0.52;0.20;;;26.00;90.20;;;;;;20910246;28;20091;-49
2021/07/18 12:14:26;;;;;;;0.30;0.20;;;25.80;90.50;;;;;;20909031;28;20032;-48
2021/07/18 12:24:31;;;;;;;0.32;0.20;;;26.10;87.60;;;;;;20907904;28;20025;-46
2021/07/18 12:34:45;;;;;;;0.50;0.32;;;24.50;90.50;;;;;;20906086;28;20078;-46
2021/07/18 12:44:56;;;;;;;0.57;0.30;;;23.90;90.50;;;;;;20905833;28;20352;-47
2021/07/18 12:55:14;;;;;;;0.28;0.25;;;23.00;92.80;;;;;;20904648;28;20514;-48
2021/07/18 13:05:16;;;;;;;0.30;0.30;;;22.30;93.00;;;;;;20904979;28;20029;-46
2021/07/18 13:15:20;;;;;;;0.30;0.30;;;21.80;93.20;;;;;;20904660;28;20033;-46
2021/07/18 13:25:33;;;;;;;0.50;0.30;;;21.60;95.10;;;;;;20904989;28;20079;-48
2021/07/18 13:35:45;;;;;;;0.50;0.40;;;21.60;97.00;;;;;;20913501;28;20482;-47
2021/07/18 13:45:57;;;;;;;0.32;0.30;;;22.20;94.40;;;;;;20918953;28;20124;-48
2021/07/18 13:56:07;;;;;;;0.68;0.40;;;23.30;94.30;;;;;;20917564;28;20033;-46
2021/07/18 14:06:09;;;;;;;1.00;0.30;;;22.70;93.70;;;;;;20917494;28;20055;-48
2021/07/18 14:16:16;;;;;;;2.33;0.40;;;23.00;94.00;;;;;;20919555;28;20114;-49
2021/07/18 14:26:18;;;;;;;0.30;0.20;;;23.30;94.90;;;;;;20915520;28;20033;-46
2021/07/18 14:36:20;;;;;;;0.70;0.40;;;23.30;93.40;;;;;;20915879;28;20033;-48
2021/07/18 14:46:22;;;;;;;2.35;0.32;;;23.60;92.00;;;;;;20914155;28;20099;-51
2021/07/18 14:56:24;;;;;;;0.60;0.40;;;22.90;92.00;;;;;;20913991;28;20487;-50
2021/07/18 15:06:25;;;;;;;0.65;0.45;;;24.30;91.70;;;;;;20912113;28;20560;-52
2021/07/18 15:16:29;;;;;;;0.40;0.40;;;25.30;91.20;;;;;;20911885;28;20036;-48
2021/07/18 15:26:31;;;;;;;0.52;0.40;;;25.40;87.00;;;;;;20914452;28;20033;-46
2021/07/18 15:36:32;;;;;;;0.40;0.30;;;26.10;86.50;;;;;;20912020;28;20536;-49
2021/07/18 15:46:35;;;;;;;1.75;0.47;;;28.30;82.60;;;;;;20908852;28;20437;-47
2021/07/18 15:56:39;;;;;;;1.50;0.50;;;28.40;81.30;;;;;;20908798;28;20186;-47
2021/07/18 16:06:41;;;;;;;0.40;0.38;;;28.30;78.70;;;;;;20908948;28;20055;-46
2021/07/18 16:16:43;;;;;;;0.80;0.45;;;27.00;79.60;;;;;;20909317;28;20029;-46
2021/07/18 16:26:45;;;;;;;1.15;0.60;;;24.40;84.80;;;;;;20908545;28;20029;-51
2021/07/18 16:36:47;;;;;;;0.82;0.45;;;23.40;90.10;;;;;;20907484;28;20033;-47
2021/07/18 16:46:51;;;;;;;2.45;0.47;;;23.10;91.90;;;;;;20907091;28;20099;-47
2021/07/18 16:56:52;;;;;;;1.00;0.47;;;23.10;92.40;;;;;;20904941;28;20045;-49
2021/07/18 17:06:57;;;;;;;1.10;0.63;;;22.70;91.90;;;;;;20909166;28;20041;-49
2021/07/18 17:16:59;;;;;;;3.15;0.68;;;22.40;92.70;;;;;;20921054;28;20134;-47
2021/07/18 17:27:02;;;;;;;2.38;0.70;;;21.90;93.40;;;;;;20920441;28;20037;-50
2021/07/18 17:37:08;;;;;;;0.60;0.50;;;21.50;93.20;;;;;;20919934;28;20043;-46
2021/07/18 17:47:10;;;;;;;0.57;0.30;;;21.30;93.10;;;;;;20919723;28;20029;-48
2021/07/18 17:57:12;;;;;;;0.45;0.43;;;20.80;94.10;;;;;;20918608;28;20082;-50
2021/07/18 18:07:15;;;;;;;1.52;0.50;;;20.50;93.40;;;;;;20917287;28;20110;-47
2021/07/18 18:17:17;;;;;;;1.15;0.38;;;20.40;93.60;;;;;;20916731;28;20029;-45
2021/07/18 18:27:19;;;;;;;0.50;0.38;;;20.00;94.40;;;;;;20915914;28;20058;-51
2021/07/18 18:37:22;;;;;;;0.52;0.32;;;19.60;95.10;;;;;;20915163;28;20041;-48
2021/07/18 18:47:27;;;;;;;0.88;0.35;;;19.70;94.40;;;;;;20913762;28;20033;-46
2021/07/18 18:57:30;;;;;;;0.50;0.32;;;19.40;95.80;;;;;;20911660;28;20375;-48
2021/07/18 19:07:32;;;;;;;0.50;0.35;;;18.90;96.60;;;;;;20912409;28;20033;-49
2021/07/18 19:17:34;;;;;;;0.68;0.40;;;18.70;96.80;;;;;;20911917;28;20471;-48
2021/07/18 19:27:37;;;;;;;0.40;0.15;;;18.40;97.50;;;;;;20909024;28;20092;-46
2021/07/18 19:37:40;;;;;;;0.28;0.17;;;18.50;96.70;;;;;;20910562;28;20036;-45
2021/07/18 19:47:42;;;;;;;0.52;0.17;;;18.80;95.70;;;;;;20909114;28;20033;-46
2021/07/18 19:57:45;;;;;;;0.50;0.20;;;19.00;94.80;;;;;;20909128;28;20052;-45
2021/07/18 20:07:46;;;;;;;0.20;0.10;;;19.10;94.50;;;;;;20907853;28;20091;-50
2021/07/18 20:17:48;;;;;;;0.38;0.13;;;19.00;94.60;;;;;;20906910;28;20036;-48
2021/07/18 20:27:50;;;;;;;0.25;0.20;;;19.00;93.90;;;;;;20906413;28;20374;-47
2021/07/18 20:37:52;;;;;;;0.73;0.30;;;18.60;94.70;;;;;;20906330;28;20382;-47
2021/07/18 20:47:54;;;;;;;0.63;0.20;;;18.30;95.10;;;;;;20906183;28;20090;-45
2021/07/18 20:57:55;;;;;;;0.60;0.43;;;18.20;95.20;;;;;;20906132;28;20075;-46
2021/07/18 21:07:57;;;;;;;0.40;0.30;;;18.20;95.20;;;;;;20907755;28;20048;-44
2021/07/18 21:17:59;;;;;;;0.90;0.50;;;18.40;94.90;;;;;;20905056;28;20040;-45
2021/07/18 21:28:01;;;;;;;1.05;0.32;;;18.30;95.50;;;;;;20905417;28;20021;-45
2021/07/18 21:38:04;;;;;;;0.68;0.38;;;18.50;94.60;;;;;;20905734;28;20421;-46
2021/07/18 21:48:06;;;;;;;0.63;0.30;;;18.50;94.10;;;;;;20904720;28;20037;-45
2021/07/18 21:58:08;;;;;;;0.70;0.45;;;18.50;93.70;;;;;;20915820;28;20060;-46
2021/07/18 22:08:10;;;;;;;0.95;0.60;;;18.60;93.50;;;;;;20918402;28;20037;-47
2021/07/18 22:18:13;;;;;;;0.60;0.50;;;18.40;93.90;;;;;;20917939;28;20051;-50
2021/07/18 22:28:15;;;;;;;1.17;0.80;;;18.40;94.00;;;;;;20916409;28;20037;-46
2021/07/18 22:38:17;;;;;;;1.70;0.90;;;18.00;95.40;;;;;;20916078;28;20036;-46
2021/07/18 22:48:18;;;;;;;1.33;0.82;;;17.60;95.60;;;;;;20915379;28;20029;-47
2021/07/18 22:58:20;;;;;;;2.42;1.40;;;17.30;95.80;;;;;;20914549;28;20095;-46
2021/07/18 23:08:22;;;;;;;1.85;1.05;;;17.30;95.40;;;;;;20912462;28;20482;-46
2021/07/18 23:18:24;;;;;;;1.65;1.10;;;17.70;94.70;;;;;;20912027;28;20037;-47
2021/07/18 23:28:25;;;;;;;1.92;1.20;;;17.50;95.60;;;;;;20911393;28;20021;-48
2021/07/18 23:38:27;;;;;;;3.72;1.20;;;16.90;96.80;;;;;;20910878;28;20029;-45
2021/07/18 23:48:29;;;;;;;3.08;1.45;;;16.50;97.50;;;;;;20909430;28;20052;-46
2021/07/18 23:58:30;;;;;;;4.35;1.88;;;16.30;97.70;;;;;;20909242;28;20060;-49
